sensor_id;sensor_type;location;lat;lon;timestamp;P1;durP1;ratioP1;P2;durP2;ratioP2
9398;SDS011;4739;49.334;8.792;2022-08-11T00:01:51;2.43;;;2.23;;
9398;SDS011;4739;49.334;8.792;2022-08-11T00:04:18;4.70;;;2.43;;
9398;SDS011;4739;49.334;8.792;2022-08-11T00:06:45;3.57;;;2.33;;
9398;SDS011;4739;49.334;8.792;2022-08-11T00:09:16;3.93;;;2.70;;
9398;SDS011;4739;49.334;8.792;2022-08-11T00:11:52;2.50;;;2.13;;
9398;SDS011;4739;49.334;8.792;2022-08-11T00:14:23;2.70;;;2.50;;
9398;SDS011;4739;49.334;8.792;2022-08-11T00:19:20;2.90;;;2.20;;
9398;SDS011;4739;49.334;8.792;2022-08-11T00:21:46;3.67;;;2.80;;
9398;SDS011;4739;49.334;8.792;2022-08-11T00:24:13;2.73;;;2.13;;
9398;SDS011;4739;49.334;8.792;2022-08-11T00:26:39;3.03;;;2.63;;
9398;SDS011;4739;49.334;8.792;2022-08-11T00:29:11;3.20;;;2.53;;
9398;SDS011;4739;49.334;8.792;2022-08-11T00:31:37;3.80;;;2.40;;
9398;SDS011;4739;49.334;8.792;2022-08-11T00:34:10;3.90;;;2.57;;
9398;SDS011;4739;49.334;8.792;2022-08-11T00:39:21;3.70;;;2.50;;
9398;SDS011;4739;49.334;8.792;2022-08-11T00:41:57;2.87;;;2.33;;
9398;SDS011;4739;49.334;8.792;2022-08-11T00:44:32;3.37;;;2.63;;
9398;SDS011;4739;49.334;8.792;2022-08-11T01:00:03;4.90;;;2.60;;
9398;SDS011;4739;49.334;8.792;2022-08-11T01:05:27;2.53;;;2.33;;
9398;SDS011;4739;49.334;8.792;2022-08-11T01:31:17;2.20;;;2.00;;
9398;SDS011;4739;49.334;8.792;2022-08-11T01:34:07;2.67;;;2.47;;
9398;SDS011;4739;49.334;8.792;2022-08-11T01:47:34;2.90;;;2.47;;
9398;SDS011;4739;49.334;8.792;2022-08-11T01:55:33;2.80;;;2.47;;
9398;SDS011;4739;49.334;8.792;2022-08-11T02:06:21;3.60;;;2.60;;
9398;SDS011;4739;49.334;8.792;2022-08-11T02:09:14;3.23;;;2.60;;
9398;SDS011;4739;49.334;8.792;2022-08-11T02:11:44;4.60;;;2.50;;
9398;SDS011;4739;49.334;8.792;2022-08-11T02:14:20;3.90;;;2.40;;
9398;SDS011;4739;49.334;8.792;2022-08-11T02:19:22;2.90;;;2.70;;
9398;SDS011;4739;49.334;8.792;2022-08-11T02:25:16;3.00;;;2.70;;
9398;SDS011;4739;49.334;8.792;2022-08-11T02:27:44;3.00;;;2.27;;
9398;SDS011;4739;49.334;8.792;2022-08-11T02:30:13;3.63;;;2.60;;
9398;SDS011;4739;49.334;8.792;2022-08-11T02:35:29;2.80;;;2.60;;
9398;SDS011;4739;49.334;8.792;2022-08-11T02:43:04;3.80;;;2.87;;
9398;SDS011;4739;49.334;8.792;2022-08-11T02:48:45;3.10;;;2.20;;
9398;SDS011;4739;49.334;8.792;2022-08-11T02:51:36;3.07;;;2.67;;
9398;SDS011;4739;49.334;8.792;2022-08-11T02:54:20;2.97;;;2.77;;
9398;SDS011;4739;49.334;8.792;2022-08-11T02:57:07;2.93;;;2.73;;
9398;SDS011;4739;49.334;8.792;2022-08-11T03:18:33;3.50;;;2.80;;
9398;SDS011;4739;49.334;8.792;2022-08-11T03:34:13;3.30;;;2.60;;
9398;SDS011;4739;49.334;8.792;2022-08-11T03:42:09;4.77;;;2.80;;
9398;SDS011;4739;49.334;8.792;2022-08-11T03:55:03;3.00;;;2.73;;
9398;SDS011;4739;49.334;8.792;2022-08-11T04:10:31;4.30;;;3.43;;
9398;SDS011;4739;49.334;8.792;2022-08-11T04:13:24;4.23;;;3.20;;
9398;SDS011;4739;49.334;8.792;2022-08-11T04:26:29;4.77;;;3.30;;
9398;SDS011;4739;49.334;8.792;2022-08-11T04:29:02;6.40;;;3.50;;
9398;SDS011;4739;49.334;8.792;2022-08-11T04:45:33;7.50;;;3.60;;
9398;SDS011;4739;49.334;8.792;2022-08-11T04:54:25;4.60;;;3.30;;
9398;SDS011;4739;49.334;8.792;2022-08-11T04:57:19;6.43;;;4.07;;
9398;SDS011;4739;49.334;8.792;2022-08-11T05:00:09;8.30;;;4.03;;
9398;SDS011;4739;49.334;8.792;2022-08-11T05:13:43;9.53;;;4.13;;
9398;SDS011;4739;49.334;8.792;2022-08-11T05:16:29;12.67;;;4.07;;
9398;SDS011;4739;49.334;8.792;2022-08-11T05:19:16;9.40;;;4.77;;
9398;SDS011;4739;49.334;8.792;2022-08-11T05:22:01;7.50;;;4.70;;
9398;SDS011;4739;49.334;8.792;2022-08-11T05:24:51;6.83;;;4.13;;
9398;SDS011;4739;49.334;8.792;2022-08-11T05:27:44;5.83;;;4.20;;
9398;SDS011;4739;49.334;8.792;2022-08-11T05:30:33;8.17;;;3.93;;
9398;SDS011;4739;49.334;8.792;2022-08-11T05:33:23;7.57;;;4.13;;
9398;SDS011;4739;49.334;8.792;2022-08-11T05:38:35;7.57;;;3.70;;
9398;SDS011;4739;49.334;8.792;2022-08-11T05:41:21;10.67;;;4.23;;
9398;SDS011;4739;49.334;8.792;2022-08-11T05:44:06;6.33;;;3.07;;
9398;SDS011;4739;49.334;8.792;2022-08-11T05:46:51;5.13;;;3.53;;
9398;SDS011;4739;49.334;8.792;2022-08-11T05:49:36;8.07;;;3.77;;
9398;SDS011;4739;49.334;8.792;2022-08-11T05:52:22;3.87;;;3.10;;
9398;SDS011;4739;49.334;8.792;2022-08-11T05:55:07;4.80;;;3.27;;
9398;SDS011;4739;49.334;8.792;2022-08-11T05:57:56;6.17;;;3.07;;
9398;SDS011;4739;49.334;8.792;2022-08-11T06:00:24;6.63;;;3.63;;
9398;SDS011;4739;49.334;8.792;2022-08-11T06:02:51;4.13;;;3.47;;
9398;SDS011;4739;49.334;8.792;2022-08-11T06:05:19;4.20;;;3.23;;
9398;SDS011;4739;49.334;8.792;2022-08-11T06:07:46;3.77;;;3.10;;
9398;SDS011;4739;49.334;8.792;2022-08-11T06:10:12;10.33;;;3.53;;
9398;SDS011;4739;49.334;8.792;2022-08-11T06:12:39;5.23;;;3.63;;
9398;SDS011;4739;49.334;8.792;2022-08-11T06:15:06;5.53;;;3.00;;
9398;SDS011;4739;49.334;8.792;2022-08-11T06:17:34;8.33;;;3.40;;
9398;SDS011;4739;49.334;8.792;2022-08-11T06:20:02;3.90;;;2.60;;
9398;SDS011;4739;49.334;8.792;2022-08-11T06:22:28;2.90;;;2.60;;
9398;SDS011;4739;49.334;8.792;2022-08-11T06:24:56;3.00;;;2.70;;
9398;SDS011;4739;49.334;8.792;2022-08-11T06:27:23;5.10;;;2.90;;
9398;SDS011;4739;49.334;8.792;2022-08-11T06:29:51;6.50;;;2.87;;
9398;SDS011;4739;49.334;8.792;2022-08-11T06:32:18;4.60;;;2.90;;
9398;SDS011;4739;49.334;8.792;2022-08-11T06:45:02;2.97;;;2.63;;
9398;SDS011;4739;49.334;8.792;2022-08-11T06:47:32;2.87;;;2.40;;
9398;SDS011;4739;49.334;8.792;2022-08-11T06:49:58;2.80;;;2.60;;
9398;SDS011;4739;49.334;8.792;2022-08-11T06:52:43;4.30;;;2.63;;
9398;SDS011;4739;49.334;8.792;2022-08-11T06:57:36;4.23;;;2.67;;
9398;SDS011;4739;49.334;8.792;2022-08-11T07:00:22;2.50;;;2.20;;
9398;SDS011;4739;49.334;8.792;2022-08-11T07:05:22;3.30;;;2.30;;
9398;SDS011;4739;49.334;8.792;2022-08-11T07:14:02;3.23;;;2.60;;
9398;SDS011;4739;49.334;8.792;2022-08-11T07:16:47;2.83;;;2.53;;
9398;SDS011;4739;49.334;8.792;2022-08-11T07:19:19;3.10;;;2.30;;
9398;SDS011;4739;49.334;8.792;2022-08-11T07:22:09;3.17;;;2.50;;
9398;SDS011;4739;49.334;8.792;2022-08-11T07:24:58;2.93;;;2.20;;
9398;SDS011;4739;49.334;8.792;2022-08-11T07:27:45;4.43;;;2.57;;
9398;SDS011;4739;49.334;8.792;2022-08-11T07:30:31;5.07;;;2.20;;
9398;SDS011;4739;49.334;8.792;2022-08-11T07:32:59;6.33;;;2.80;;
9398;SDS011;4739;49.334;8.792;2022-08-11T07:35:35;11.93;;;3.23;;
9398;SDS011;4739;49.334;8.792;2022-08-11T07:38:04;9.97;;;3.20;;
9398;SDS011;4739;49.334;8.792;2022-08-11T07:40:31;7.30;;;2.40;;
9398;SDS011;4739;49.334;8.792;2022-08-11T07:42:58;3.40;;;2.67;;
9398;SDS011;4739;49.334;8.792;2022-08-11T07:45:25;3.93;;;2.53;;
9398;SDS011;4739;49.334;8.792;2022-08-11T07:48:10;4.67;;;2.60;;
9398;SDS011;4739;49.334;8.792;2022-08-11T07:50:55;4.67;;;2.53;;
9398;SDS011;4739;49.334;8.792;2022-08-11T07:53:40;4.40;;;2.37;;
9398;SDS011;4739;49.334;8.792;2022-08-11T07:56:07;2.97;;;2.60;;
9398;SDS011;4739;49.334;8.792;2022-08-11T07:58:33;10.60;;;3.00;;
9398;SDS011;4739;49.334;8.792;2022-08-11T08:01:22;6.20;;;2.73;;
9398;SDS011;4739;49.334;8.792;2022-08-11T08:04:08;6.60;;;2.77;;
9398;SDS011;4739;49.334;8.792;2022-08-11T08:06:54;4.87;;;2.80;;
9398;SDS011;4739;49.334;8.792;2022-08-11T08:09:39;5.37;;;2.50;;
9398;SDS011;4739;49.334;8.792;2022-08-11T08:12:25;2.30;;;2.10;;
9398;SDS011;4739;49.334;8.792;2022-08-11T08:15:10;4.57;;;2.70;;
9398;SDS011;4739;49.334;8.792;2022-08-11T08:17:59;5.93;;;2.77;;
9398;SDS011;4739;49.334;8.792;2022-08-11T08:20:29;3.23;;;2.50;;
9398;SDS011;4739;49.334;8.792;2022-08-11T08:22:56;4.00;;;2.30;;
9398;SDS011;4739;49.334;8.792;2022-08-11T08:25:24;4.13;;;2.30;;
9398;SDS011;4739;49.334;8.792;2022-08-11T08:27:51;3.80;;;2.53;;
9398;SDS011;4739;49.334;8.792;2022-08-11T08:30:18;3.17;;;2.30;;
9398;SDS011;4739;49.334;8.792;2022-08-11T08:33:03;3.17;;;2.50;;
9398;SDS011;4739;49.334;8.792;2022-08-11T08:35:29;4.70;;;2.70;;
9398;SDS011;4739;49.334;8.792;2022-08-11T08:37:56;6.73;;;2.73;;
9398;SDS011;4739;49.334;8.792;2022-08-11T08:40:23;6.10;;;2.47;;
9398;SDS011;4739;49.334;8.792;2022-08-11T08:42:54;4.53;;;3.10;;
9398;SDS011;4739;49.334;8.792;2022-08-11T08:45:21;4.50;;;2.40;;
9398;SDS011;4739;49.334;8.792;2022-08-11T08:47:53;4.57;;;2.40;;
9398;SDS011;4739;49.334;8.792;2022-08-11T08:50:23;5.40;;;2.90;;
9398;SDS011;4739;49.334;8.792;2022-08-11T08:53:11;4.90;;;2.60;;
9398;SDS011;4739;49.334;8.792;2022-08-11T08:55:37;5.60;;;2.47;;
9398;SDS011;4739;49.334;8.792;2022-08-11T08:58:05;5.97;;;2.27;;
9398;SDS011;4739;49.334;8.792;2022-08-11T09:00:53;2.67;;;2.47;;
9398;SDS011;4739;49.334;8.792;2022-08-11T09:03:18;7.03;;;2.63;;
9398;SDS011;4739;49.334;8.792;2022-08-11T09:05:45;3.83;;;2.63;;
9398;SDS011;4739;49.334;8.792;2022-08-11T09:08:11;4.07;;;2.50;;
9398;SDS011;4739;49.334;8.792;2022-08-11T09:10:38;2.88;;;2.33;;
9398;SDS011;4739;49.334;8.792;2022-08-11T09:13:04;3.53;;;2.40;;
9398;SDS011;4739;49.334;8.792;2022-08-11T09:15:32;10.80;;;2.77;;
9398;SDS011;4739;49.334;8.792;2022-08-11T09:17:59;7.53;;;2.40;;
9398;SDS011;4739;49.334;8.792;2022-08-11T09:23:03;11.32;;;3.13;;
9398;SDS011;4739;49.334;8.792;2022-08-11T09:25:50;7.47;;;2.10;;
9398;SDS011;4739;49.334;8.792;2022-08-11T09:28:36;14.30;;;2.83;;
9398;SDS011;4739;49.334;8.792;2022-08-11T09:31:02;7.30;;;2.85;;
9398;SDS011;4739;49.334;8.792;2022-08-11T09:33:28;8.23;;;2.60;;
9398;SDS011;4739;49.334;8.792;2022-08-11T09:35:55;8.98;;;2.40;;
9398;SDS011;4739;49.334;8.792;2022-08-11T09:38:22;12.80;;;2.67;;
9398;SDS011;4739;49.334;8.792;2022-08-11T09:41:07;10.07;;;2.80;;
9398;SDS011;4739;49.334;8.792;2022-08-11T09:43:43;4.88;;;2.40;;
9398;SDS011;4739;49.334;8.792;2022-08-11T09:46:28;6.30;;;2.10;;
9398;SDS011;4739;49.334;8.792;2022-08-11T09:48:56;2.25;;;1.85;;
9398;SDS011;4739;49.334;8.792;2022-08-11T09:51:23;3.30;;;1.95;;
9398;SDS011;4739;49.334;8.792;2022-08-11T09:53:50;6.00;;;2.28;;
9398;SDS011;4739;49.334;8.792;2022-08-11T09:56:17;5.38;;;2.30;;
9398;SDS011;4739;49.334;8.792;2022-08-11T09:59:03;6.20;;;2.20;;
9398;SDS011;4739;49.334;8.792;2022-08-11T10:01:30;7.50;;;1.90;;
9398;SDS011;4739;49.334;8.792;2022-08-11T10:04:00;4.63;;;2.20;;
9398;SDS011;4739;49.334;8.792;2022-08-11T10:06:28;3.15;;;1.80;;
9398;SDS011;4739;49.334;8.792;2022-08-11T10:09:15;2.88;;;2.08;;
9398;SDS011;4739;49.334;8.792;2022-08-11T10:11:43;3.78;;;2.13;;
9398;SDS011;4739;49.334;8.792;2022-08-11T10:14:09;3.10;;;1.70;;
9398;SDS011;4739;49.334;8.792;2022-08-11T10:16:55;3.78;;;2.10;;
9398;SDS011;4739;49.334;8.792;2022-08-11T10:19:21;3.92;;;2.05;;
9398;SDS011;4739;49.334;8.792;2022-08-11T10:21:49;4.15;;;1.92;;
9398;SDS011;4739;49.334;8.792;2022-08-11T10:27:38;2.13;;;1.70;;
9398;SDS011;4739;49.334;8.792;2022-08-11T10:30:07;4.05;;;1.95;;
9398;SDS011;4739;49.334;8.792;2022-08-11T10:32:52;1.80;;;1.60;;
9398;SDS011;4739;49.334;8.792;2022-08-11T10:35:37;3.97;;;1.83;;
9398;SDS011;4739;49.334;8.792;2022-08-11T10:38:03;3.78;;;1.95;;
9398;SDS011;4739;49.334;8.792;2022-08-11T10:40:29;2.58;;;2.30;;
9398;SDS011;4739;49.334;8.792;2022-08-11T10:42:58;3.00;;;1.77;;
9398;SDS011;4739;49.334;8.792;2022-08-11T10:45:28;2.60;;;1.63;;
9398;SDS011;4739;49.334;8.792;2022-08-11T10:48:13;3.53;;;1.83;;
9398;SDS011;4739;49.334;8.792;2022-08-11T10:50:40;5.00;;;2.13;;
9398;SDS011;4739;49.334;8.792;2022-08-11T10:53:29;3.92;;;1.75;;
9398;SDS011;4739;49.334;8.792;2022-08-11T10:56:14;3.78;;;2.00;;
9398;SDS011;4739;49.334;8.792;2022-08-11T10:59:00;4.20;;;1.95;;
9398;SDS011;4739;49.334;8.792;2022-08-11T11:01:34;2.55;;;2.35;;
9398;SDS011;4739;49.334;8.792;2022-08-11T11:04:05;4.15;;;2.08;;
9398;SDS011;4739;49.334;8.792;2022-08-11T11:09:15;6.10;;;1.98;;
9398;SDS011;4739;49.334;8.792;2022-08-11T11:11:42;3.22;;;1.77;;
9398;SDS011;4739;49.334;8.792;2022-08-11T11:14:30;2.90;;;1.80;;
9398;SDS011;4739;49.334;8.792;2022-08-11T11:17:15;2.92;;;1.80;;
9398;SDS011;4739;49.334;8.792;2022-08-11T11:19:48;2.72;;;1.70;;
9398;SDS011;4739;49.334;8.792;2022-08-11T11:22:16;23.65;;;2.45;;
9398;SDS011;4739;49.334;8.792;2022-08-11T11:25:09;4.18;;;1.48;;
9398;SDS011;4739;49.334;8.792;2022-08-11T11:30:22;2.92;;;1.70;;
9398;SDS011;4739;49.334;8.792;2022-08-11T11:35:29;1.85;;;1.63;;
9398;SDS011;4739;49.334;8.792;2022-08-11T11:38:00;3.40;;;1.70;;
9398;SDS011;4739;49.334;8.792;2022-08-11T11:40:27;14.23;;;2.60;;
9398;SDS011;4739;49.334;8.792;2022-08-11T11:42:53;21.08;;;2.55;;
9398;SDS011;4739;49.334;8.792;2022-08-11T11:45:22;33.53;;;3.72;;
9398;SDS011;4739;49.334;8.792;2022-08-11T11:47:52;5.03;;;1.80;;
9398;SDS011;4739;49.334;8.792;2022-08-11T11:50:22;3.38;;;1.60;;
9398;SDS011;4739;49.334;8.792;2022-08-11T11:52:49;1.92;;;1.83;;
9398;SDS011;4739;49.334;8.792;2022-08-11T11:55:17;3.63;;;1.73;;
9398;SDS011;4739;49.334;8.792;2022-08-11T11:57:43;2.38;;;1.75;;
9398;SDS011;4739;49.334;8.792;2022-08-11T12:00:28;2.78;;;1.50;;
9398;SDS011;4739;49.334;8.792;2022-08-11T12:03:13;4.13;;;1.63;;
9398;SDS011;4739;49.334;8.792;2022-08-11T12:05:39;3.92;;;1.60;;
9398;SDS011;4739;49.334;8.792;2022-08-11T12:08:06;2.75;;;1.67;;
9398;SDS011;4739;49.334;8.792;2022-08-11T12:10:53;2.45;;;1.70;;
9398;SDS011;4739;49.334;8.792;2022-08-11T12:13:49;2.53;;;1.60;;
9398;SDS011;4739;49.334;8.792;2022-08-11T12:16:17;16.27;;;2.40;;
9398;SDS011;4739;49.334;8.792;2022-08-11T12:18:46;13.13;;;3.00;;
9398;SDS011;4739;49.334;8.792;2022-08-11T12:21:13;6.57;;;1.77;;
9398;SDS011;4739;49.334;8.792;2022-08-11T12:23:40;7.40;;;2.05;;
9398;SDS011;4739;49.334;8.792;2022-08-11T12:26:25;3.20;;;1.80;;
9398;SDS011;4739;49.334;8.792;2022-08-11T12:29:10;13.70;;;2.60;;
9398;SDS011;4739;49.334;8.792;2022-08-11T12:31:37;14.02;;;2.95;;
9398;SDS011;4739;49.334;8.792;2022-08-11T12:34:04;19.73;;;2.72;;
9398;SDS011;4739;49.334;8.792;2022-08-11T12:36:32;3.78;;;1.88;;
9398;SDS011;4739;49.334;8.792;2022-08-11T12:38:59;5.63;;;1.77;;
9398;SDS011;4739;49.334;8.792;2022-08-11T12:41:27;2.95;;;1.73;;
9398;SDS011;4739;49.334;8.792;2022-08-11T12:44:13;5.30;;;1.80;;
9398;SDS011;4739;49.334;8.792;2022-08-11T12:47:06;3.13;;;1.65;;
9398;SDS011;4739;49.334;8.792;2022-08-11T12:49:34;4.22;;;1.90;;
9398;SDS011;4739;49.334;8.792;2022-08-11T12:52:23;8.32;;;2.15;;
9398;SDS011;4739;49.334;8.792;2022-08-11T12:54:54;14.52;;;2.20;;
9398;SDS011;4739;49.334;8.792;2022-08-11T12:57:35;4.68;;;2.05;;
9398;SDS011;4739;49.334;8.792;2022-08-11T13:00:20;3.35;;;1.50;;
9398;SDS011;4739;49.334;8.792;2022-08-11T13:03:06;2.22;;;1.70;;
9398;SDS011;4739;49.334;8.792;2022-08-11T13:05:51;3.63;;;1.77;;
9398;SDS011;4739;49.334;8.792;2022-08-11T13:08:18;6.03;;;1.90;;
9398;SDS011;4739;49.334;8.792;2022-08-11T13:10:45;4.50;;;1.50;;
9398;SDS011;4739;49.334;8.792;2022-08-11T13:13:30;13.80;;;1.85;;
9398;SDS011;4739;49.334;8.792;2022-08-11T13:15:56;11.45;;;2.10;;
9398;SDS011;4739;49.334;8.792;2022-08-11T13:18:22;16.52;;;2.70;;
9398;SDS011;4739;49.334;8.792;2022-08-11T13:20:57;4.00;;;1.83;;
9398;SDS011;4739;49.334;8.792;2022-08-11T13:23:24;9.00;;;2.00;;
9398;SDS011;4739;49.334;8.792;2022-08-11T13:25:51;23.80;;;3.03;;
9398;SDS011;4739;49.334;8.792;2022-08-11T13:28:18;10.10;;;2.42;;
9398;SDS011;4739;49.334;8.792;2022-08-11T13:30:45;19.52;;;3.50;;
9398;SDS011;4739;49.334;8.792;2022-08-11T13:33:30;5.18;;;1.70;;
9398;SDS011;4739;49.334;8.792;2022-08-11T13:35:57;2.03;;;1.70;;
9398;SDS011;4739;49.334;8.792;2022-08-11T13:38:23;3.72;;;1.40;;
9398;SDS011;4739;49.334;8.792;2022-08-11T13:40:50;2.40;;;1.60;;
9398;SDS011;4739;49.334;8.792;2022-08-11T13:43:18;8.30;;;2.20;;
9398;SDS011;4739;49.334;8.792;2022-08-11T13:45:45;11.48;;;1.75;;
9398;SDS011;4739;49.334;8.792;2022-08-11T13:48:12;19.63;;;2.70;;
9398;SDS011;4739;49.334;8.792;2022-08-11T13:50:39;11.95;;;2.25;;
9398;SDS011;4739;49.334;8.792;2022-08-11T13:53:25;2.95;;;1.90;;
9398;SDS011;4739;49.334;8.792;2022-08-11T13:55:52;5.57;;;1.90;;
9398;SDS011;4739;49.334;8.792;2022-08-11T13:58:18;10.45;;;2.08;;
9398;SDS011;4739;49.334;8.792;2022-08-11T14:00:47;10.85;;;1.67;;
9398;SDS011;4739;49.334;8.792;2022-08-11T14:03:13;7.05;;;1.65;;
9398;SDS011;4739;49.334;8.792;2022-08-11T14:05:47;3.25;;;1.58;;
9398;SDS011;4739;49.334;8.792;2022-08-11T14:08:16;2.05;;;1.40;;
9398;SDS011;4739;49.334;8.792;2022-08-11T14:10:43;2.47;;;1.65;;
9398;SDS011;4739;49.334;8.792;2022-08-11T14:13:11;2.83;;;1.80;;
9398;SDS011;4739;49.334;8.792;2022-08-11T14:15:57;1.70;;;1.60;;
9398;SDS011;4739;49.334;8.792;2022-08-11T14:18:27;9.63;;;2.20;;
9398;SDS011;4739;49.334;8.792;2022-08-11T14:20:55;5.10;;;1.58;;
9398;SDS011;4739;49.334;8.792;2022-08-11T14:26:06;5.22;;;1.65;;
9398;SDS011;4739;49.334;8.792;2022-08-11T14:31:19;1.85;;;1.50;;
9398;SDS011;4739;49.334;8.792;2022-08-11T14:33:45;2.65;;;1.40;;
9398;SDS011;4739;49.334;8.792;2022-08-11T14:36:11;4.65;;;1.70;;
9398;SDS011;4739;49.334;8.792;2022-08-11T14:38:37;2.55;;;1.85;;
9398;SDS011;4739;49.334;8.792;2022-08-11T14:41:04;4.35;;;1.50;;
9398;SDS011;4739;49.334;8.792;2022-08-11T14:43:49;2.75;;;1.70;;
9398;SDS011;4739;49.334;8.792;2022-08-11T14:46:35;2.95;;;1.60;;
9398;SDS011;4739;49.334;8.792;2022-08-11T14:49:20;3.88;;;1.30;;
9398;SDS011;4739;49.334;8.792;2022-08-11T14:51:47;2.58;;;1.50;;
9398;SDS011;4739;49.334;8.792;2022-08-11T14:54:14;3.08;;;1.58;;
9398;SDS011;4739;49.334;8.792;2022-08-11T14:56:59;2.08;;;1.48;;
9398;SDS011;4739;49.334;8.792;2022-08-11T14:59:27;1.60;;;1.50;;
9398;SDS011;4739;49.334;8.792;2022-08-11T15:01:53;4.18;;;1.80;;
9398;SDS011;4739;49.334;8.792;2022-08-11T15:04:38;3.90;;;1.50;;
9398;SDS011;4739;49.334;8.792;2022-08-11T15:07:04;3.97;;;1.50;;
9398;SDS011;4739;49.334;8.792;2022-08-11T15:09:30;2.05;;;1.42;;
9398;SDS011;4739;49.334;8.792;2022-08-11T15:11:57;2.35;;;1.25;;
9398;SDS011;4739;49.334;8.792;2022-08-11T15:14:32;8.43;;;1.50;;
9398;SDS011;4739;49.334;8.792;2022-08-11T15:17:17;2.88;;;1.38;;
9398;SDS011;4739;49.334;8.792;2022-08-11T15:19:43;3.75;;;1.63;;
9398;SDS011;4739;49.334;8.792;2022-08-11T15:22:28;2.60;;;1.27;;
9398;SDS011;4739;49.334;8.792;2022-08-11T15:25:13;1.92;;;1.30;;
9398;SDS011;4739;49.334;8.792;2022-08-11T15:27:40;3.08;;;1.42;;
9398;SDS011;4739;49.334;8.792;2022-08-11T15:30:25;1.60;;;1.20;;
9398;SDS011;4739;49.334;8.792;2022-08-11T15:33:11;2.97;;;1.20;;
9398;SDS011;4739;49.334;8.792;2022-08-11T15:35:58;2.22;;;1.40;;
9398;SDS011;4739;49.334;8.792;2022-08-11T15:38:54;1.75;;;1.30;;
9398;SDS011;4739;49.334;8.792;2022-08-11T15:41:23;3.92;;;1.30;;
9398;SDS011;4739;49.334;8.792;2022-08-11T15:44:09;1.40;;;1.30;;
9398;SDS011;4739;49.334;8.792;2022-08-11T15:46:56;3.10;;;1.30;;
9398;SDS011;4739;49.334;8.792;2022-08-11T15:52:18;2.42;;;1.40;;
9398;SDS011;4739;49.334;8.792;2022-08-11T15:54:46;2.92;;;1.38;;
9398;SDS011;4739;49.334;8.792;2022-08-11T15:57:14;2.03;;;1.40;;
9398;SDS011;4739;49.334;8.792;2022-08-11T16:00:04;1.88;;;1.30;;
9398;SDS011;4739;49.334;8.792;2022-08-11T16:02:49;5.43;;;1.40;;
9398;SDS011;4739;49.334;8.792;2022-08-11T16:05:19;2.00;;;1.35;;
9398;SDS011;4739;49.334;8.792;2022-08-11T16:07:46;2.55;;;1.30;;
9398;SDS011;4739;49.334;8.792;2022-08-11T16:10:14;2.65;;;1.30;;
9398;SDS011;4739;49.334;8.792;2022-08-11T16:12:46;3.80;;;1.60;;
9398;SDS011;4739;49.334;8.792;2022-08-11T16:15:29;1.77;;;1.60;;
9398;SDS011;4739;49.334;8.792;2022-08-11T16:18:15;2.85;;;1.40;;
9398;SDS011;4739;49.334;8.792;2022-08-11T16:23:07;2.83;;;1.63;;
9398;SDS011;4739;49.334;8.792;2022-08-11T16:25:34;2.40;;;1.50;;
9398;SDS011;4739;49.334;8.792;2022-08-11T16:28:03;3.50;;;1.50;;
9398;SDS011;4739;49.334;8.792;2022-08-11T16:30:31;1.90;;;1.40;;
9398;SDS011;4739;49.334;8.792;2022-08-11T16:32:58;3.17;;;1.55;;
9398;SDS011;4739;49.334;8.792;2022-08-11T16:35:25;2.15;;;1.20;;
9398;SDS011;4739;49.334;8.792;2022-08-11T16:38:10;2.60;;;1.40;;
9398;SDS011;4739;49.334;8.792;2022-08-11T16:40:57;1.98;;;1.60;;
9398;SDS011;4739;49.334;8.792;2022-08-11T16:43:24;3.70;;;1.70;;
9398;SDS011;4739;49.334;8.792;2022-08-11T16:46:12;2.65;;;1.65;;
9398;SDS011;4739;49.334;8.792;2022-08-11T16:48:57;3.10;;;1.50;;
9398;SDS011;4739;49.334;8.792;2022-08-11T16:51:24;3.58;;;1.73;;
9398;SDS011;4739;49.334;8.792;2022-08-11T16:53:50;2.40;;;1.50;;
9398;SDS011;4739;49.334;8.792;2022-08-11T16:56:20;2.45;;;1.40;;
9398;SDS011;4739;49.334;8.792;2022-08-11T16:58:52;2.35;;;1.30;;
9398;SDS011;4739;49.334;8.792;2022-08-11T17:01:38;2.47;;;1.30;;
9398;SDS011;4739;49.334;8.792;2022-08-11T17:04:12;1.95;;;1.60;;
9398;SDS011;4739;49.334;8.792;2022-08-11T17:06:59;2.92;;;1.35;;
9398;SDS011;4739;49.334;8.792;2022-08-11T17:09:43;1.33;;;1.23;;
9398;SDS011;4739;49.334;8.792;2022-08-11T17:12:31;4.63;;;1.58;;
9398;SDS011;4739;49.334;8.792;2022-08-11T17:15:17;4.93;;;1.58;;
9398;SDS011;4739;49.334;8.792;2022-08-11T17:18:03;1.98;;;1.50;;
9398;SDS011;4739;49.334;8.792;2022-08-11T17:23:03;3.83;;;1.50;;
9398;SDS011;4739;49.334;8.792;2022-08-11T17:25:48;3.17;;;1.55;;
9398;SDS011;4739;49.334;8.792;2022-08-11T17:28:16;2.67;;;1.38;;
9398;SDS011;4739;49.334;8.792;2022-08-11T17:30:43;1.95;;;1.65;;
9398;SDS011;4739;49.334;8.792;2022-08-11T17:33:28;3.08;;;1.38;;
9398;SDS011;4739;49.334;8.792;2022-08-11T17:36:14;3.47;;;1.55;;
9398;SDS011;4739;49.334;8.792;2022-08-11T17:38:42;3.80;;;1.70;;
9398;SDS011;4739;49.334;8.792;2022-08-11T17:41:09;2.90;;;1.50;;
9398;SDS011;4739;49.334;8.792;2022-08-11T17:43:55;1.83;;;1.55;;
9398;SDS011;4739;49.334;8.792;2022-08-11T17:46:41;5.30;;;1.80;;
9398;SDS011;4739;49.334;8.792;2022-08-11T17:49:26;5.70;;;2.30;;
9398;SDS011;4739;49.334;8.792;2022-08-11T17:51:55;3.90;;;2.08;;
9398;SDS011;4739;49.334;8.792;2022-08-11T17:54:39;2.83;;;2.45;;
9398;SDS011;4739;49.334;8.792;2022-08-11T17:57:25;5.20;;;2.15;;
9398;SDS011;4739;49.334;8.792;2022-08-11T18:00:10;3.55;;;2.00;;
9398;SDS011;4739;49.334;8.792;2022-08-11T18:02:37;3.28;;;1.90;;
9398;SDS011;4739;49.334;8.792;2022-08-11T18:05:23;3.75;;;2.15;;
9398;SDS011;4739;49.334;8.792;2022-08-11T18:07:50;4.25;;;2.13;;
9398;SDS011;4739;49.334;8.792;2022-08-11T18:10:36;3.45;;;2.10;;
9398;SDS011;4739;49.334;8.792;2022-08-11T18:13:22;3.47;;;1.77;;
9398;SDS011;4739;49.334;8.792;2022-08-11T18:16:07;2.13;;;1.52;;
9398;SDS011;4739;49.334;8.792;2022-08-11T18:18:52;2.53;;;1.60;;
9398;SDS011;4739;49.334;8.792;2022-08-11T18:21:37;4.18;;;2.38;;
9398;SDS011;4739;49.334;8.792;2022-08-11T18:24:24;2.75;;;1.80;;
9398;SDS011;4739;49.334;8.792;2022-08-11T18:27:10;3.88;;;2.03;;
9398;SDS011;4739;49.334;8.792;2022-08-11T18:29:57;4.72;;;2.10;;
9398;SDS011;4739;49.334;8.792;2022-08-11T18:32:44;4.78;;;2.00;;
9398;SDS011;4739;49.334;8.792;2022-08-11T18:35:30;4.40;;;2.10;;
9398;SDS011;4739;49.334;8.792;2022-08-11T18:38:15;3.97;;;1.90;;
9398;SDS011;4739;49.334;8.792;2022-08-11T18:41:01;3.45;;;2.10;;
9398;SDS011;4739;49.334;8.792;2022-08-11T18:43:47;3.25;;;2.30;;
9398;SDS011;4739;49.334;8.792;2022-08-11T18:46:35;2.67;;;2.35;;
9398;SDS011;4739;49.334;8.792;2022-08-11T18:49:21;5.33;;;2.43;;
9398;SDS011;4739;49.334;8.792;2022-08-11T18:52:06;4.43;;;2.03;;
9398;SDS011;4739;49.334;8.792;2022-08-11T18:54:52;3.13;;;2.20;;
9398;SDS011;4739;49.334;8.792;2022-08-11T18:57:39;3.08;;;1.92;;
9398;SDS011;4739;49.334;8.792;2022-08-11T19:00:24;3.73;;;1.93;;
9398;SDS011;4739;49.334;8.792;2022-08-11T19:03:10;3.27;;;2.20;;
9398;SDS011;4739;49.334;8.792;2022-08-11T19:06:00;3.03;;;2.13;;
9398;SDS011;4739;49.334;8.792;2022-08-11T19:08:45;2.70;;;1.80;;
9398;SDS011;4739;49.334;8.792;2022-08-11T19:11:32;3.80;;;2.03;;
9398;SDS011;4739;49.334;8.792;2022-08-11T19:14:17;1.80;;;1.70;;
9398;SDS011;4739;49.334;8.792;2022-08-11T19:17:02;2.00;;;1.70;;
9398;SDS011;4739;49.334;8.792;2022-08-11T19:19:49;5.47;;;2.20;;
9398;SDS011;4739;49.334;8.792;2022-08-11T19:22:34;4.33;;;2.10;;
9398;SDS011;4739;49.334;8.792;2022-08-11T19:25:20;3.77;;;1.63;;
9398;SDS011;4739;49.334;8.792;2022-08-11T19:28:06;3.57;;;1.90;;
9398;SDS011;4739;49.334;8.792;2022-08-11T19:30:52;5.47;;;1.93;;
9398;SDS011;4739;49.334;8.792;2022-08-11T19:33:37;1.80;;;1.70;;
9398;SDS011;4739;49.334;8.792;2022-08-11T19:36:23;3.77;;;2.20;;
9398;SDS011;4739;49.334;8.792;2022-08-11T19:39:08;4.27;;;1.90;;
9398;SDS011;4739;49.334;8.792;2022-08-11T19:41:53;2.10;;;1.63;;
9398;SDS011;4739;49.334;8.792;2022-08-11T19:44:39;3.53;;;2.00;;
9398;SDS011;4739;49.334;8.792;2022-08-11T19:47:24;2.10;;;1.70;;
9398;SDS011;4739;49.334;8.792;2022-08-11T19:50:10;2.63;;;1.50;;
9398;SDS011;4739;49.334;8.792;2022-08-11T19:52:55;3.80;;;2.07;;
9398;SDS011;4739;49.334;8.792;2022-08-11T19:55:40;3.47;;;1.80;;
9398;SDS011;4739;49.334;8.792;2022-08-11T19:58:25;4.17;;;2.10;;
9398;SDS011;4739;49.334;8.792;2022-08-11T20:01:11;2.97;;;2.60;;
9398;SDS011;4739;49.334;8.792;2022-08-11T20:03:55;3.20;;;1.90;;
9398;SDS011;4739;49.334;8.792;2022-08-11T20:06:39;3.80;;;2.20;;
9398;SDS011;4739;49.334;8.792;2022-08-11T20:09:25;3.20;;;1.97;;